Overview Statistics Trail Chart Weather Telemetry Raw packets
 

This is the latest recevied weather packets stored in our database for station/object K0NV. If no packets are shown the sender has not sent any weather packets the latest 10 day(s).

<< 2 3 4 5 6 7 8 >>
Time Temp. Humidity Pressure Rain* Wind** Luminosity Snow
1788550652 36.11° C 44% 1016.5 hPa 0 mm - 95 W/m² -
1788550348 36.11° C 45% 1016.4 hPa 0 mm - 88 W/m² -
1788550043 36.11° C 45% 1016.6 hPa 0 mm - 140 W/m² -
1788549738 35.56° C 45% 1016.5 hPa 0 mm - 99 W/m² -
1788549435 36.11° C 44% 1016.4 hPa 0 mm - 127 W/m² -
1788549131 35.56° C 46% 1016.6 hPa 0 mm - 97 W/m² -
1788548827 35° C 47% 1016.9 hPa 0 mm - 100 W/m² -
1788548522 36.11° C 45% 1016.7 hPa 0 mm - 125 W/m² -
1788548219 36.11° C 48% 1016.9 hPa 0 mm - 663 W/m² -
1788547914 36.11° C 46% 1016.9 hPa 0 mm - 681 W/m² -
1788547612 36.11° C 46% 1016.7 hPa 0 mm - 695 W/m² -
1788547308 36.11° C 45% 1016.9 hPa 0 mm - 727 W/m² -
1788547003 35.56° C 45% 1016.7 hPa 0 mm - 660 W/m² -
1788546698 36.67° C 44% 1017.1 hPa 0 mm - 122 W/m² -
1788546393 36.11° C 46% 1017.3 hPa 0 mm - 686 W/m² -
1788546088 36.11° C 46% 1017.2 hPa 0 mm - 397 W/m² -
1788545783 35.56° C 46% 1017.2 hPa 0 mm - 690 W/m² -
1788545478 35.56° C 47% 1017.3 hPa 0 mm - 681 W/m² -
1788545173 35.56° C 47% 1017.4 hPa 0 mm - 704 W/m² -
1788544868 35° C 48% 1017.4 hPa 0 mm - 721 W/m² -
1788544562 35.56° C 47% 1017.5 hPa 0 mm - 724 W/m² -
1788544260 35.56° C 46% 1017.8 hPa 0 mm - 703 W/m² -
1788543955 35.56° C 47% 1017.8 hPa 0 mm - 690 W/m² -
1788543652 35.56° C 46% 1017.6 hPa 0 mm - 707 W/m² -
1788543352 36.67° C 45% 1017.9 hPa 0 mm - 714 W/m² -

* Rain latest hour (hover to see other rain measurements)
** Current wind speed in m/s (hover to see current wind gust speed)